createdAt,value
2018-05-21T00:01:01.766Z,65.30
2018-05-21T00:03:31.432Z,65.50
2018-05-21T00:06:04.308Z,65.90
2018-05-21T00:08:32.734Z,65.80
2018-05-21T00:11:02.308Z,65.70
2018-05-21T00:15:56.755Z,65.90
2018-05-21T00:18:26.087Z,65.80
2018-05-21T00:20:54.455Z,65.90
2018-05-21T00:23:24.371Z,66.10
2018-05-21T00:25:53.397Z,65.90
2018-05-21T00:28:23.005Z,65.60
2018-05-21T00:30:51.383Z,65.80
2018-05-21T00:33:21.387Z,65.60
2018-05-21T00:35:50.908Z,65.50
2018-05-21T00:38:20.457Z,65.30
2018-05-21T00:40:49.405Z,65.20
2018-05-21T00:43:18.035Z,65.20
2018-05-21T00:45:46.471Z,65.70
2018-05-21T00:48:15.920Z,65.50
2018-05-21T00:50:44.356Z,65.50
2018-05-21T00:53:13.554Z,64.80
2018-05-21T00:55:42.752Z,64.10
2018-05-21T00:58:13.127Z,64.10
2018-05-21T01:00:41.662Z,65.10
2018-05-21T01:03:11.114Z,64.80
2018-05-21T01:05:40.367Z,65.20
2018-05-21T01:08:09.477Z,64.80
2018-05-21T01:10:40.045Z,64.80
2018-05-21T01:13:09.138Z,63.90
2018-05-21T01:15:37.650Z,63.90
2018-05-21T01:18:06.052Z,63.40
2018-05-21T01:20:35.144Z,64.60
2018-05-21T01:23:03.582Z,64.30
2018-05-21T01:25:33.391Z,64.60
2018-05-21T01:28:02.022Z,64.30
2018-05-21T01:30:30.436Z,64.40
2018-05-21T01:33:01.397Z,64.10
2018-05-21T01:35:29.779Z,64.10
2018-05-21T01:37:58.642Z,64.00
2018-05-21T01:40:26.890Z,64.60
2018-05-21T01:42:55.995Z,63.50
2018-05-21T01:45:26.064Z,63.90
2018-05-21T01:47:55.110Z,63.50
2018-05-21T01:50:23.549Z,63.50
2018-05-21T01:52:52.960Z,64.00
2018-05-21T01:55:21.278Z,63.20
2018-05-21T01:57:50.297Z,63.10
2018-05-21T02:00:20.592Z,62.70
2018-05-21T02:02:50.028Z,62.60
2018-05-21T02:05:19.051Z,62.50
2018-05-21T02:07:47.346Z,62.50
2018-05-21T02:10:17.158Z,62.60
2018-05-21T02:12:45.417Z,62.60
2018-05-21T02:15:13.787Z,61.50
2018-05-21T02:17:42.064Z,62.10
2018-05-21T02:20:11.141Z,61.20
2018-05-21T02:22:41.192Z,61.60
2018-05-21T02:25:09.449Z,61.30
2018-05-21T02:27:37.705Z,60.90
2018-05-21T02:30:06.125Z,60.90
2018-05-21T02:32:34.381Z,60.20
2018-05-21T02:35:04.048Z,60.30
2018-05-21T02:37:37.558Z,60.30
2018-05-21T02:40:06.784Z,60.30
2018-05-21T02:42:40.806Z,59.90
2018-05-21T02:45:13.550Z,59.10
2018-05-21T02:47:44.490Z,59.10
2018-05-21T02:50:14.181Z,58.90
2018-05-21T02:52:43.668Z,58.20
2018-05-21T02:55:13.723Z,58.00
2018-05-21T02:57:44.236Z,59.30
2018-05-21T03:00:13.318Z,59.20
2018-05-21T03:02:41.564Z,59.30
2018-05-21T03:05:12.200Z,59.20
2018-05-21T03:07:40.487Z,59.10
2018-05-21T03:10:08.762Z,58.80
2018-05-21T03:12:37.905Z,58.30
2018-05-21T03:15:06.395Z,58.30
2018-05-21T03:17:34.662Z,58.70
2018-05-21T03:20:04.895Z,57.60
2018-05-21T03:22:34.078Z,57.70
2018-05-21T03:25:02.384Z,57.90
2018-05-21T03:27:31.015Z,57.90
2018-05-21T03:29:59.407Z,57.90
2018-05-21T03:32:27.751Z,57.60
2018-05-21T03:34:59.090Z,56.70
2018-05-21T03:37:28.193Z,56.70
2018-05-21T03:39:57.286Z,56.60
2018-05-21T03:42:26.523Z,56.60
2018-05-21T03:44:55.100Z,56.60
2018-05-21T03:47:23.385Z,56.60
2018-05-21T03:49:52.245Z,56.60
2018-05-21T03:52:20.550Z,55.70
2018-05-21T03:54:49.637Z,56.50
2018-05-21T03:57:20.653Z,56.60
2018-05-21T04:00:00.894Z,56.40
2018-05-21T04:02:43.140Z,56.30
2018-05-21T04:05:12.244Z,56.50
2018-05-21T04:07:42.170Z,56.80
2018-05-21T04:10:10.478Z,56.40
2018-05-21T04:12:40.750Z,56.70
2018-05-21T04:15:10.777Z,56.50
2018-05-21T04:17:41.409Z,56.50
2018-05-21T04:20:10.924Z,56.60
2018-05-21T04:22:39.970Z,56.50
2018-05-21T04:25:09.824Z,57.60
2018-05-21T04:27:38.044Z,57.50
2018-05-21T04:30:09.438Z,58.80
2018-05-21T04:32:38.137Z,58.80
2018-05-21T04:35:07.867Z,57.60
2018-05-21T04:37:36.133Z,58.00
2018-05-21T04:40:04.382Z,57.30
2018-05-21T04:42:32.803Z,57.60
2018-05-21T04:45:01.037Z,57.80
2018-05-21T04:47:29.275Z,57.30
2018-05-21T04:49:57.528Z,56.90
2018-05-21T04:52:26.562Z,56.80
2018-05-21T04:54:54.794Z,56.70
2018-05-21T04:57:23.798Z,57.50
2018-05-21T04:59:52.059Z,57.40
2018-05-21T05:02:21.086Z,57.40
2018-05-21T05:04:49.338Z,57.30
2018-05-21T05:07:18.346Z,56.70
2018-05-21T05:09:46.606Z,56.70
2018-05-21T05:12:15.622Z,56.90
2018-05-21T05:14:43.861Z,56.80
2018-05-21T05:17:12.912Z,56.80
2018-05-21T05:19:41.155Z,56.70
2018-05-21T05:22:09.407Z,56.30
2018-05-21T05:24:38.415Z,56.40
2018-05-21T05:27:06.669Z,56.40
2018-05-21T05:29:35.679Z,56.00
2018-05-21T05:32:03.934Z,55.90
2018-05-21T05:34:33.000Z,54.60
2018-05-21T05:37:01.244Z,54.50
2018-05-21T05:39:29.500Z,54.30
2018-05-21T05:41:58.512Z,53.90
2018-05-21T05:44:26.864Z,53.90
2018-05-21T05:46:55.896Z,54.20
2018-05-21T05:49:24.130Z,54.20
2018-05-21T05:51:52.392Z,53.40
2018-05-21T05:54:20.631Z,53.60
2018-05-21T05:56:49.039Z,54.20
2018-05-21T05:59:17.271Z,53.70
2018-05-21T06:01:45.527Z,53.80
2018-05-21T06:04:13.783Z,54.90
2018-05-21T06:06:42.794Z,54.00
2018-05-21T06:09:11.359Z,54.00
2018-05-21T06:11:40.357Z,53.30
2018-05-21T06:14:08.607Z,53.30
2018-05-21T06:16:37.627Z,52.50
2018-05-21T06:19:05.907Z,52.20
2018-05-21T06:21:34.148Z,52.20
2018-05-21T06:24:03.168Z,52.90
2018-05-21T06:26:32.333Z,52.90
2018-05-21T06:29:00.923Z,54.30
2018-05-21T06:31:29.211Z,53.50
2018-05-21T06:33:58.244Z,52.60
2018-05-21T06:36:26.466Z,52.60
2018-05-21T06:38:55.483Z,53.30
2018-05-21T06:41:23.729Z,53.20
2018-05-21T06:43:52.750Z,52.80
2018-05-21T06:46:20.999Z,52.70
2018-05-21T06:48:50.091Z,51.80
2018-05-21T06:51:18.298Z,51.80
2018-05-21T06:53:46.571Z,50.50
2018-05-21T06:56:14.824Z,51.70
2018-05-21T06:58:43.990Z,50.40
2018-05-21T07:01:12.235Z,50.40
2018-05-21T07:03:40.510Z,50.20
2018-05-21T07:06:08.773Z,48.70
2018-05-21T07:08:37.028Z,49.20
2018-05-21T07:11:06.057Z,49.10
2018-05-21T07:13:34.295Z,49.20
2018-05-21T07:16:03.315Z,49.20
2018-05-21T07:18:31.598Z,49.10
2018-05-21T07:20:59.887Z,47.10
2018-05-21T07:23:28.116Z,49.30
2018-05-21T07:25:56.386Z,47.80
2018-05-21T07:28:25.397Z,48.90
2018-05-21T07:30:53.654Z,48.80
2018-05-21T07:33:22.806Z,48.00
2018-05-21T07:35:51.814Z,47.70
2018-05-21T07:38:20.059Z,47.70
2018-05-21T07:40:49.075Z,46.60
2018-05-21T07:43:17.324Z,47.30
2018-05-21T07:45:45.583Z,46.40
2018-05-21T07:48:13.850Z,47.70
2018-05-21T07:50:42.119Z,47.70
2018-05-21T07:53:10.363Z,45.80
2018-05-21T07:55:38.656Z,46.60
2018-05-21T07:58:07.702Z,46.50
2018-05-21T08:00:35.915Z,46.40
2018-05-21T08:03:04.937Z,47.30
2018-05-21T08:05:33.174Z,47.10
2018-05-21T08:08:02.207Z,46.80
2018-05-21T08:10:30.447Z,46.70
2018-05-21T08:12:59.471Z,47.40
2018-05-21T08:15:27.726Z,47.40
2018-05-21T08:17:56.730Z,47.00
2018-05-21T08:20:24.993Z,47.10
2018-05-21T08:22:54.024Z,47.60
2018-05-21T08:25:22.263Z,47.60
2018-05-21T08:27:50.522Z,44.30
2018-05-21T08:30:19.539Z,46.40
2018-05-21T08:32:47.784Z,46.10
2018-05-21T08:35:16.038Z,44.40
2018-05-21T08:37:44.298Z,48.40
2018-05-21T08:40:12.543Z,45.40
2018-05-21T08:42:40.858Z,48.30
2018-05-21T08:45:09.071Z,45.50
2018-05-21T08:47:38.227Z,43.20
2018-05-21T08:50:06.485Z,43.30
2018-05-21T08:52:34.747Z,45.00
2018-05-21T08:55:03.026Z,45.10
2018-05-21T08:57:31.252Z,44.50
2018-05-21T08:59:59.656Z,45.50
2018-05-21T09:02:28.663Z,45.80
2018-05-21T09:04:56.906Z,45.80
2018-05-21T09:07:25.930Z,45.50
2018-05-21T09:09:54.219Z,45.30
2018-05-21T09:12:23.460Z,44.60
2018-05-21T09:14:51.643Z,44.60
2018-05-21T09:17:20.660Z,44.80
2018-05-21T09:19:48.927Z,44.70
2018-05-21T09:22:17.325Z,45.10
2018-05-21T09:24:45.569Z,45.30
2018-05-21T09:27:14.570Z,45.20
2018-05-21T09:29:43.092Z,45.20
2018-05-21T09:32:11.330Z,45.70
2018-05-21T09:34:39.584Z,43.50
2018-05-21T09:37:08.606Z,43.30
2018-05-21T09:39:36.860Z,43.20
2018-05-21T09:42:05.976Z,43.30
2018-05-21T09:44:34.160Z,43.30
2018-05-21T09:47:02.447Z,45.30
2018-05-21T09:49:30.695Z,46.30
2018-05-21T09:51:58.939Z,44.90
2018-05-21T09:54:27.225Z,43.90
2018-05-21T09:56:56.237Z,44.30
2018-05-21T09:59:24.490Z,44.30
2018-05-21T10:01:53.495Z,44.80
2018-05-21T10:04:21.757Z,44.60
2018-05-21T10:06:50.785Z,41.00
2018-05-21T10:09:19.036Z,40.90
2018-05-21T10:11:48.072Z,43.10
2018-05-21T10:14:16.326Z,42.90
2018-05-21T10:16:44.587Z,43.20
2018-05-21T10:19:12.936Z,43.70
2018-05-21T10:21:41.559Z,43.90
2018-05-21T10:24:09.800Z,42.90
2018-05-21T10:26:38.811Z,43.90
2018-05-21T10:29:07.071Z,43.80
2018-05-21T10:31:35.518Z,44.30
2018-05-21T10:34:03.780Z,45.80
2018-05-21T10:36:32.031Z,44.30
2018-05-21T10:39:00.274Z,43.90
2018-05-21T10:41:29.449Z,42.60
2018-05-21T10:43:57.685Z,42.60
2018-05-21T10:46:25.929Z,43.40
2018-05-21T10:48:55.351Z,42.00
2018-05-21T10:51:23.596Z,41.90
2018-05-21T10:53:51.855Z,40.60
2018-05-21T10:56:20.123Z,41.60
2018-05-21T10:58:48.363Z,42.00
2018-05-21T11:01:16.938Z,42.30
2018-05-21T11:03:45.179Z,39.70
2018-05-21T11:06:14.192Z,40.80
2018-05-21T11:08:42.446Z,40.50
2018-05-21T11:11:11.478Z,40.50
2018-05-21T11:13:39.731Z,40.50
2018-05-21T11:16:07.978Z,41.70
2018-05-21T11:18:37.349Z,43.30
2018-05-21T11:21:05.581Z,42.30
2018-05-21T11:23:33.842Z,42.00
2018-05-21T11:26:02.862Z,40.70
2018-05-21T11:28:31.115Z,40.70
2018-05-21T11:30:59.524Z,38.70
2018-05-21T11:33:27.763Z,38.90
2018-05-21T11:35:56.768Z,40.60
2018-05-21T11:38:25.020Z,40.60
2018-05-21T11:40:54.036Z,40.60
2018-05-21T11:43:22.295Z,40.30
2018-05-21T11:45:51.290Z,41.50
2018-05-21T11:48:20.306Z,40.40
2018-05-21T11:50:48.623Z,40.40
2018-05-21T11:53:17.713Z,42.60
2018-05-21T11:55:45.960Z,42.50
2018-05-21T11:58:14.202Z,41.00
2018-05-21T12:00:43.227Z,42.70
2018-05-21T12:03:11.459Z,41.70
2018-05-21T12:05:40.486Z,41.30
2018-05-21T12:08:08.724Z,41.30
2018-05-21T12:10:37.754Z,40.10
2018-05-21T12:13:06.033Z,40.00
2018-05-21T12:15:34.275Z,40.90
2018-05-21T12:18:03.295Z,38.10
2018-05-21T12:20:31.554Z,38.10
2018-05-21T12:22:59.807Z,40.40
2018-05-21T12:25:28.839Z,38.00
2018-05-21T12:27:57.086Z,38.00
2018-05-21T12:30:26.313Z,39.50
2018-05-21T12:32:54.562Z,39.50
2018-05-21T12:35:23.574Z,37.50
2018-05-21T12:37:51.831Z,37.60
2018-05-21T12:40:20.083Z,38.30
2018-05-21T12:42:48.339Z,37.80
2018-05-21T12:45:16.588Z,37.10
2018-05-21T12:47:44.836Z,38.10
2018-05-21T12:50:13.111Z,37.50
2018-05-21T12:52:41.359Z,39.50
2018-05-21T12:55:10.374Z,36.60
2018-05-21T12:57:38.638Z,36.60
2018-05-21T13:00:07.648Z,38.40
2018-05-21T13:02:35.903Z,38.30
2018-05-21T13:05:04.914Z,37.60
2018-05-21T13:07:33.163Z,37.50
2018-05-21T13:10:02.172Z,36.40
2018-05-21T13:12:30.423Z,36.40
2018-05-21T13:14:58.692Z,37.10
2018-05-21T13:17:26.943Z,37.60
2018-05-21T13:19:55.199Z,36.30
2018-05-21T13:22:23.444Z,36.30
2018-05-21T13:24:52.482Z,38.70
2018-05-21T13:27:21.488Z,40.30
2018-05-21T13:29:50.516Z,39.00
2018-05-21T13:32:19.544Z,35.30
2018-05-21T13:34:47.795Z,35.20
2018-05-21T13:37:16.191Z,36.90
2018-05-21T13:39:44.454Z,36.20
2018-05-21T13:42:12.759Z,35.60
2018-05-21T13:44:41.013Z,36.70
2018-05-21T13:47:09.261Z,36.40
2018-05-21T13:49:37.507Z,38.10
2018-05-21T13:52:05.820Z,35.30
2018-05-21T13:54:34.214Z,36.50
2018-05-21T13:57:02.452Z,37.80
2018-05-21T13:59:30.695Z,38.20
2018-05-21T14:01:58.956Z,37.40
2018-05-21T14:04:27.198Z,37.80
2018-05-21T14:06:55.437Z,37.20
2018-05-21T14:09:23.698Z,36.70
2018-05-21T14:11:51.944Z,36.60
2018-05-21T14:14:20.206Z,37.50
2018-05-21T14:16:48.458Z,36.70
2018-05-21T14:19:17.482Z,35.50
2018-05-21T14:21:45.727Z,35.40
2018-05-21T14:24:14.899Z,38.20
2018-05-21T14:26:43.147Z,38.10
2018-05-21T14:29:11.378Z,38.30
2018-05-21T14:31:40.415Z,36.70
2018-05-21T14:34:08.655Z,36.70
2018-05-21T14:36:36.950Z,38.80
2018-05-21T14:39:06.098Z,37.30
2018-05-21T14:41:34.344Z,38.60
2018-05-21T14:44:02.603Z,38.60
2018-05-21T14:46:30.838Z,38.60
2018-05-21T14:48:59.857Z,36.40
2018-05-21T14:51:28.091Z,36.20
2018-05-21T14:53:57.445Z,35.30
2018-05-21T14:56:25.670Z,35.30
2018-05-21T14:58:54.692Z,37.50
2018-05-21T15:01:22.970Z,37.30
2018-05-21T15:03:51.210Z,35.80
2018-05-21T15:06:20.381Z,37.10
2018-05-21T15:08:48.644Z,37.10
2018-05-21T15:11:16.890Z,36.10
2018-05-21T15:13:45.156Z,38.80
2018-05-21T15:16:13.426Z,38.00
2018-05-21T15:18:41.663Z,40.20
2018-05-21T15:21:09.910Z,39.70
2018-05-21T15:23:38.175Z,36.40
2018-05-21T15:26:06.427Z,39.40
2018-05-21T15:28:34.668Z,39.50
2018-05-21T15:31:02.941Z,36.50
2018-05-21T15:33:31.203Z,37.80
2018-05-21T15:35:59.584Z,36.40
2018-05-21T15:38:27.842Z,36.30
2018-05-21T15:40:56.103Z,37.50
2018-05-21T15:43:24.469Z,39.30
2018-05-21T15:45:52.652Z,38.20
2018-05-21T15:48:20.914Z,38.40
2018-05-21T15:50:49.159Z,41.00
2018-05-21T15:53:18.191Z,39.40
2018-05-21T15:55:46.441Z,39.10
2018-05-21T15:58:15.520Z,41.60
2018-05-21T16:00:44.543Z,38.90
2018-05-21T16:03:12.804Z,38.80
2018-05-21T16:05:41.835Z,37.00
2018-05-21T16:08:10.078Z,37.00
2018-05-21T16:10:38.369Z,39.10
2018-05-21T16:13:06.597Z,38.50
2018-05-21T16:15:34.870Z,38.70
2018-05-21T16:18:03.183Z,40.90
2018-05-21T16:20:31.474Z,40.20
2018-05-21T16:22:59.753Z,40.90
2018-05-21T16:25:27.999Z,41.10
2018-05-21T16:27:56.250Z,40.70
2018-05-21T16:30:24.654Z,42.40
2018-05-21T16:32:53.657Z,41.60
2018-05-21T16:35:21.978Z,41.70
2018-05-21T16:37:50.938Z,40.10
2018-05-21T16:40:19.166Z,40.00
2018-05-21T16:42:48.201Z,38.80
2018-05-21T16:45:16.438Z,38.80
2018-05-21T16:47:45.539Z,39.50
2018-05-21T16:50:13.706Z,39.40
2018-05-21T16:52:42.731Z,38.70
2018-05-21T16:55:10.979Z,38.40
2018-05-21T16:57:39.394Z,41.00
2018-05-21T17:00:07.698Z,41.10
2018-05-21T17:02:35.914Z,38.70
2018-05-21T17:05:04.959Z,39.30
2018-05-21T17:07:33.209Z,39.20
2018-05-21T17:10:01.779Z,40.20
2018-05-21T17:12:30.030Z,39.30
2018-05-21T17:14:59.025Z,41.20
2018-05-21T17:17:28.047Z,39.20
2018-05-21T17:19:56.298Z,39.10
2018-05-21T17:22:24.567Z,40.00
2018-05-21T17:24:53.570Z,40.10
2018-05-21T17:27:21.849Z,40.10
2018-05-21T17:29:50.124Z,41.10
2018-05-21T17:32:18.371Z,41.50
2018-05-21T17:34:46.761Z,42.80
2018-05-21T17:37:15.778Z,43.10
2018-05-21T17:39:44.031Z,43.20
2018-05-21T17:42:13.367Z,41.80
2018-05-21T17:44:41.613Z,41.70
2018-05-21T17:47:09.970Z,41.80
2018-05-21T17:49:38.215Z,40.50
2018-05-21T17:52:06.467Z,42.00
2018-05-21T17:54:34.901Z,42.10
2018-05-21T17:57:03.138Z,42.30
2018-05-21T17:59:32.151Z,42.00
2018-05-21T18:02:00.549Z,41.90
2018-05-21T18:04:29.562Z,43.00
2018-05-21T18:06:57.819Z,43.00
2018-05-21T18:09:26.841Z,43.20
2018-05-21T18:11:55.084Z,43.10
2018-05-21T18:14:24.108Z,43.10
2018-05-21T18:16:52.361Z,43.10
2018-05-21T18:19:21.536Z,44.20
2018-05-21T18:21:49.757Z,44.10
2018-05-21T18:24:18.023Z,42.60
2018-05-21T18:26:46.296Z,43.20
2018-05-21T18:29:14.543Z,44.90
2018-05-21T18:31:43.580Z,45.70
2018-05-21T18:34:11.818Z,45.70
2018-05-21T18:36:40.909Z,47.70
2018-05-21T18:39:09.148Z,47.70
2018-05-21T18:41:37.382Z,46.70
2018-05-21T18:44:05.679Z,47.40
2018-05-21T18:46:33.949Z,49.40
2018-05-21T18:49:02.339Z,49.10
2018-05-21T18:51:30.628Z,51.10
2018-05-21T18:53:59.748Z,54.50
2018-05-21T18:56:27.909Z,54.90
2018-05-21T18:58:56.201Z,55.70
2018-05-21T19:01:24.426Z,56.00
2018-05-21T19:03:52.693Z,56.20
2018-05-21T19:06:20.955Z,56.20
2018-05-21T19:08:49.261Z,56.00
2018-05-21T19:11:17.520Z,55.70
2018-05-21T19:13:45.849Z,55.50
2018-05-21T19:16:14.093Z,56.00
2018-05-21T19:18:42.381Z,55.60
2018-05-21T19:21:11.821Z,56.20
2018-05-21T19:23:40.842Z,57.40
2018-05-21T19:26:09.124Z,57.40
2018-05-21T19:28:37.489Z,58.40
2018-05-21T19:31:05.770Z,59.00
2018-05-21T19:33:34.775Z,58.20
2018-05-21T19:36:03.067Z,58.20
2018-05-21T19:38:31.303Z,58.40
2018-05-21T19:40:59.715Z,58.10
2018-05-21T19:43:27.967Z,57.70
2018-05-21T19:45:56.241Z,57.30
2018-05-21T19:48:24.516Z,56.60
2018-05-21T19:50:52.760Z,56.70
2018-05-21T19:53:21.822Z,57.30
2018-05-21T19:55:50.218Z,57.30
2018-05-21T19:58:18.501Z,58.10
2018-05-21T20:00:46.737Z,58.70
2018-05-21T20:03:14.993Z,58.70
2018-05-21T20:05:43.248Z,58.70
2018-05-21T20:08:11.494Z,58.50
2018-05-21T20:10:40.621Z,58.90
2018-05-21T20:13:08.891Z,58.80
2018-05-21T20:15:37.134Z,58.70
2018-05-21T20:18:05.464Z,58.80
2018-05-21T20:20:41.675Z,59.10
2018-05-21T20:23:10.706Z,59.30
2018-05-21T20:25:38.954Z,59.30
2018-05-21T20:28:07.986Z,59.80
2018-05-21T20:30:36.231Z,59.80
2018-05-21T20:33:04.509Z,59.90
2018-05-21T20:35:32.799Z,60.30
2018-05-21T20:38:01.097Z,60.50
2018-05-21T20:40:29.342Z,60.10
2018-05-21T20:42:57.599Z,61.10
2018-05-21T20:45:26.651Z,60.80
2018-05-21T20:47:54.856Z,60.80
2018-05-21T20:50:23.862Z,59.30
2018-05-21T20:52:52.130Z,59.10
2018-05-21T20:55:25.028Z,58.10
2018-05-21T20:57:53.288Z,58.00
2018-05-21T21:00:22.291Z,54.60
2018-05-21T21:02:50.542Z,54.60
2018-05-21T21:05:19.870Z,53.90
2018-05-21T21:07:48.127Z,53.80
2018-05-21T21:10:17.124Z,52.70
2018-05-21T21:12:45.385Z,52.70
2018-05-21T21:15:13.617Z,53.00
2018-05-21T21:17:41.897Z,53.20
2018-05-21T21:20:10.136Z,52.80
2018-05-21T21:22:38.375Z,51.20
2018-05-21T21:25:07.406Z,50.00
2018-05-21T21:27:35.645Z,49.90
2018-05-21T21:30:04.682Z,51.20
2018-05-21T21:32:33.184Z,51.20
2018-05-21T21:35:01.326Z,51.80
2018-05-21T21:37:29.590Z,52.10
2018-05-21T21:39:58.602Z,52.00
2018-05-21T21:42:26.860Z,52.00
2018-05-21T21:44:55.219Z,51.70
2018-05-21T21:47:24.226Z,52.80
2018-05-21T21:49:52.472Z,52.70
2018-05-21T21:52:20.742Z,53.50
2018-05-21T21:54:48.977Z,54.40
2018-05-21T21:57:17.239Z,54.80
2018-05-21T21:59:45.483Z,55.30
2018-05-21T22:02:14.498Z,54.60
2018-05-21T22:04:42.804Z,54.40
2018-05-21T22:07:11.055Z,55.20
2018-05-21T22:09:39.309Z,55.10
2018-05-21T22:12:07.650Z,55.00
2018-05-21T22:14:35.826Z,55.00
2018-05-21T22:17:04.107Z,55.00
2018-05-21T22:19:32.363Z,55.20
2018-05-21T22:22:00.624Z,54.90
2018-05-21T22:24:28.867Z,54.70
2018-05-21T22:26:57.127Z,53.70
2018-05-21T22:29:26.154Z,54.00
2018-05-21T22:31:54.697Z,54.00
2018-05-21T22:34:23.691Z,55.50
2018-05-21T22:36:52.701Z,55.20
2018-05-21T22:39:20.959Z,55.10
2018-05-21T22:41:49.972Z,55.10
2018-05-21T22:44:18.220Z,55.00
2018-05-21T22:46:47.235Z,55.00
2018-05-21T22:49:15.485Z,54.80
2018-05-21T22:51:44.498Z,55.50
2018-05-21T22:54:12.762Z,55.50
2018-05-21T22:56:41.927Z,56.10
2018-05-21T22:59:10.167Z,56.10
2018-05-21T23:01:38.428Z,56.00
2018-05-21T23:04:06.674Z,55.50
2018-05-21T23:06:35.701Z,55.70
2018-05-21T23:09:03.950Z,55.70
2018-05-21T23:11:32.957Z,56.40
2018-05-21T23:14:01.217Z,56.40
2018-05-21T23:16:30.224Z,56.50
2018-05-21T23:18:58.502Z,56.40
2018-05-21T23:21:27.498Z,57.60
2018-05-21T23:23:55.735Z,57.50
2018-05-21T23:26:23.987Z,57.10
2018-05-21T23:28:52.243Z,57.30
2018-05-21T23:31:20.488Z,57.20
2018-05-21T23:33:49.508Z,58.60
2018-05-21T23:36:18.190Z,58.60
2018-05-21T23:38:46.439Z,58.30
2018-05-21T23:41:14.699Z,58.20
2018-05-21T23:43:43.867Z,58.40
2018-05-21T23:46:12.104Z,58.30
2018-05-21T23:48:40.358Z,58.50
2018-05-21T23:51:08.650Z,58.00
2018-05-21T23:53:37.623Z,58.80
2018-05-21T23:56:05.888Z,58.70
2018-05-21T23:58:34.878Z,58.20
